createdAt,value
2023-03-03T00:00:23.151Z,223.06
2023-03-03T00:01:23.113Z,223.06
2023-03-03T00:02:23.177Z,223.06
2023-03-03T00:03:23.197Z,223.06
2023-03-03T00:04:23.135Z,223.06
2023-03-03T00:05:23.134Z,223.06
2023-03-03T00:06:23.133Z,223.06
2023-03-03T00:07:23.241Z,223.06
2023-03-03T00:08:23.195Z,223.06
2023-03-03T00:09:23.138Z,223.06
2023-03-03T00:10:23.131Z,223.06
2023-03-03T00:11:23.172Z,223.06
2023-03-03T00:12:23.129Z,223.06
2023-03-03T00:13:23.125Z,223.06
2023-03-03T00:14:23.147Z,223.06
2023-03-03T00:15:23.131Z,223.06
2023-03-03T00:16:23.278Z,223.06
2023-03-03T00:17:23.134Z,223.06
2023-03-03T00:18:23.141Z,223.06
2023-03-03T00:19:23.134Z,223.06
2023-03-03T00:20:23.156Z,223.06
2023-03-03T00:21:23.133Z,223.06
2023-03-03T00:22:23.152Z,223.06
2023-03-03T00:23:23.132Z,223.06
2023-03-03T00:24:23.160Z,223.06
2023-03-03T00:25:23.145Z,223.06
2023-03-03T00:26:23.136Z,223.06
2023-03-03T00:27:23.174Z,223.06
2023-03-03T00:28:23.156Z,223.06
2023-03-03T00:29:23.132Z,223.06
2023-03-03T00:30:23.144Z,223.06
2023-03-03T00:31:23.198Z,223.06
2023-03-03T00:32:23.247Z,223.06
2023-03-03T00:33:23.148Z,223.06
2023-03-03T00:34:23.191Z,223.06
2023-03-03T00:35:23.337Z,223.06
2023-03-03T00:36:23.150Z,223.06
2023-03-03T00:37:23.139Z,223.06
2023-03-03T00:38:23.157Z,223.06
2023-03-03T00:39:23.166Z,223.06
2023-03-03T00:40:23.145Z,223.06
2023-03-03T00:41:23.164Z,223.06
2023-03-03T00:42:23.158Z,223.06
2023-03-03T00:43:23.180Z,223.06
2023-03-03T00:44:23.150Z,223.06
2023-03-03T00:45:23.165Z,223.06
2023-03-03T00:46:23.177Z,223.06
2023-03-03T00:47:23.162Z,223.06
2023-03-03T00:48:23.153Z,223.06
2023-03-03T00:49:23.152Z,223.06
2023-03-03T00:50:23.160Z,223.06
2023-03-03T00:51:23.148Z,223.06
2023-03-03T00:52:23.144Z,223.06
2023-03-03T00:53:23.150Z,223.06
2023-03-03T00:54:23.156Z,223.06
2023-03-03T00:55:23.144Z,223.06
2023-03-03T00:56:23.154Z,223.06
2023-03-03T00:57:23.162Z,223.06
2023-03-03T00:58:23.156Z,223.06
2023-03-03T00:59:23.172Z,223.06
2023-03-03T01:00:23.149Z,223.06
2023-03-03T01:01:23.212Z,223.06
2023-03-03T01:02:23.237Z,223.06
2023-03-03T01:03:23.194Z,223.06
2023-03-03T01:04:23.173Z,223.06
2023-03-03T01:05:23.166Z,223.06
2023-03-03T01:06:23.159Z,223.06
2023-03-03T01:07:23.150Z,223.06
2023-03-03T01:08:23.163Z,223.06
2023-03-03T01:09:23.176Z,223.06
2023-03-03T01:10:23.156Z,223.06
2023-03-03T01:11:23.176Z,223.06
2023-03-03T01:12:23.149Z,223.06
2023-03-03T01:13:23.163Z,223.06
2023-03-03T01:14:23.252Z,223.06
2023-03-03T01:15:23.182Z,223.06
2023-03-03T01:16:23.247Z,223.06
2023-03-03T01:17:23.166Z,223.06
2023-03-03T01:18:23.169Z,223.06
2023-03-03T01:19:23.157Z,223.06
2023-03-03T01:20:23.163Z,223.06
2023-03-03T01:21:23.163Z,223.06
2023-03-03T01:22:23.197Z,223.06
2023-03-03T01:23:23.169Z,223.06
2023-03-03T01:24:23.172Z,223.06
2023-03-03T01:25:23.172Z,223.06
2023-03-03T01:26:23.161Z,223.06
2023-03-03T01:27:23.164Z,223.06
2023-03-03T01:28:23.203Z,223.06
2023-03-03T01:29:23.168Z,223.06
2023-03-03T01:30:23.193Z,223.06
2023-03-03T01:31:23.260Z,223.06
2023-03-03T01:32:23.216Z,223.06
2023-03-03T01:33:23.177Z,223.06
2023-03-03T01:34:23.179Z,223.06
2023-03-03T01:35:23.197Z,223.06
2023-03-03T01:36:23.174Z,223.06
2023-03-03T01:37:23.183Z,223.06
2023-03-03T01:38:23.191Z,223.06
2023-03-03T01:39:23.208Z,223.06
2023-03-03T01:40:23.185Z,223.06
2023-03-03T01:41:23.191Z,223.06
2023-03-03T01:42:23.182Z,223.06
2023-03-03T01:43:23.183Z,223.06
2023-03-03T01:44:23.185Z,223.06
2023-03-03T01:45:23.191Z,223.06
2023-03-03T01:46:23.229Z,223.06
2023-03-03T01:47:23.213Z,223.06
2023-03-03T01:48:23.194Z,223.06
2023-03-03T01:49:23.188Z,223.06
2023-03-03T01:50:23.186Z,223.06
2023-03-03T01:51:23.193Z,223.06
2023-03-03T01:52:23.195Z,223.06
2023-03-03T01:53:23.195Z,223.06
2023-03-03T01:54:23.210Z,223.06
2023-03-03T01:55:23.200Z,223.06
2023-03-03T01:56:23.204Z,223.06
2023-03-03T01:57:23.202Z,223.06
2023-03-03T01:58:23.208Z,223.06
2023-03-03T01:59:23.191Z,223.06
2023-03-03T02:00:23.198Z,223.06
2023-03-03T02:01:23.275Z,223.06
2023-03-03T02:02:23.219Z,223.06
2023-03-03T02:03:23.240Z,223.06
2023-03-03T02:04:23.211Z,223.06
2023-03-03T02:05:23.213Z,223.06
2023-03-03T02:06:23.211Z,223.06
2023-03-03T02:07:23.219Z,223.06
2023-03-03T02:08:23.220Z,223.06
2023-03-03T02:09:23.227Z,223.06
2023-03-03T02:10:23.217Z,223.06
2023-03-03T02:11:23.262Z,223.06
2023-03-03T02:12:23.230Z,223.06
2023-03-03T02:13:23.226Z,223.06
2023-03-03T02:14:23.228Z,223.06
2023-03-03T02:15:23.245Z,223.06
2023-03-03T02:16:23.295Z,223.06
2023-03-03T02:17:23.241Z,223.06
2023-03-03T02:18:23.241Z,223.06
2023-03-03T02:19:23.250Z,223.06
2023-03-03T02:20:23.235Z,223.06
2023-03-03T02:21:23.247Z,223.06
2023-03-03T02:22:23.232Z,223.06
2023-03-03T02:23:23.267Z,223.06
2023-03-03T02:24:23.233Z,223.06
2023-03-03T02:25:23.235Z,223.06
2023-03-03T02:26:23.247Z,223.06
2023-03-03T02:27:23.296Z,223.06
2023-03-03T02:28:23.255Z,223.06
2023-03-03T02:29:23.259Z,223.06
2023-03-03T02:30:23.241Z,223.06
2023-03-03T02:31:23.286Z,223.06
2023-03-03T02:32:23.289Z,223.06
2023-03-03T02:33:23.285Z,223.06
2023-03-03T02:34:23.265Z,223.06
2023-03-03T02:35:23.300Z,223.06
2023-03-03T02:36:23.238Z,223.06
2023-03-03T02:37:23.251Z,223.06
2023-03-03T02:38:23.247Z,223.06
2023-03-03T02:39:23.278Z,223.06
2023-03-03T02:40:23.252Z,223.06
2023-03-03T02:41:23.260Z,223.06
2023-03-03T02:42:23.269Z,223.06
2023-03-03T02:43:23.249Z,223.06
2023-03-03T02:44:23.248Z,223.06
2023-03-03T02:45:23.306Z,223.06
2023-03-03T02:46:23.256Z,223.06
2023-03-03T02:47:23.261Z,223.06
2023-03-03T02:48:23.316Z,223.06
2023-03-03T02:49:23.260Z,223.06
2023-03-03T02:50:23.265Z,223.06
2023-03-03T02:51:23.284Z,223.06
2023-03-03T02:52:23.265Z,223.06
2023-03-03T02:53:23.278Z,223.06
2023-03-03T02:54:23.263Z,223.06
2023-03-03T02:55:23.272Z,223.06
2023-03-03T02:56:23.261Z,223.06
2023-03-03T02:57:23.269Z,223.06
2023-03-03T02:58:23.256Z,223.06
2023-03-03T02:59:23.257Z,223.06
2023-03-03T03:00:23.260Z,223.06
2023-03-03T03:01:23.389Z,223.06
2023-03-03T03:02:23.281Z,223.06
2023-03-03T03:03:23.279Z,223.06
2023-03-03T03:04:23.338Z,223.06
2023-03-03T03:05:23.335Z,223.06
2023-03-03T03:06:23.277Z,223.06
2023-03-03T03:07:23.327Z,223.06
2023-03-03T03:08:23.285Z,223.06
2023-03-03T03:09:23.276Z,223.06
2023-03-03T03:10:23.265Z,223.06
2023-03-03T03:11:23.279Z,223.06
2023-03-03T03:12:23.283Z,223.06
2023-03-03T03:13:23.283Z,223.06
2023-03-03T03:14:23.269Z,223.06
2023-03-03T03:15:23.323Z,223.06
2023-03-03T03:16:23.280Z,223.06
2023-03-03T03:17:23.279Z,223.06
2023-03-03T03:18:23.289Z,223.06
2023-03-03T03:19:23.272Z,223.06
2023-03-03T03:20:23.276Z,223.06
2023-03-03T03:21:23.278Z,223.06
2023-03-03T03:22:23.295Z,223.06
2023-03-03T03:23:23.302Z,223.06
2023-03-03T03:24:23.291Z,223.06
2023-03-03T03:25:23.312Z,223.06
2023-03-03T03:26:23.286Z,223.06
2023-03-03T03:27:23.287Z,223.06
2023-03-03T03:28:23.312Z,223.06
2023-03-03T03:29:23.321Z,223.06
2023-03-03T03:30:23.298Z,223.06
2023-03-03T03:31:23.303Z,223.06
2023-03-03T03:32:23.309Z,223.06
2023-03-03T03:33:23.311Z,223.06
2023-03-03T03:34:23.308Z,223.06
2023-03-03T03:35:23.348Z,223.06
2023-03-03T03:36:23.300Z,223.06
2023-03-03T03:37:23.299Z,223.06
2023-03-03T03:38:23.313Z,223.06
2023-03-03T03:39:23.326Z,223.06
2023-03-03T03:40:23.306Z,223.06
2023-03-03T03:41:23.311Z,223.06
2023-03-03T03:42:23.317Z,223.06
2023-03-03T03:43:23.320Z,223.06
2023-03-03T03:44:23.326Z,223.06
2023-03-03T03:45:23.318Z,223.06
2023-03-03T03:46:23.382Z,223.06
2023-03-03T03:47:23.318Z,223.06
2023-03-03T03:48:23.315Z,223.06
2023-03-03T03:49:23.322Z,223.06
2023-03-03T03:50:23.314Z,223.06
2023-03-03T03:51:23.319Z,223.06
2023-03-03T03:52:23.319Z,223.06
2023-03-03T03:53:23.328Z,223.06
2023-03-03T03:54:23.327Z,223.06
2023-03-03T03:55:23.351Z,223.06
2023-03-03T03:56:23.324Z,223.06
2023-03-03T03:57:25.634Z,223.06
2023-03-03T03:58:23.333Z,223.06
2023-03-03T03:59:23.378Z,223.06
2023-03-03T04:00:23.349Z,223.06
2023-03-03T04:01:23.348Z,223.06
2023-03-03T04:02:23.420Z,223.06
2023-03-03T04:03:23.538Z,223.06
2023-03-03T04:04:23.348Z,223.06
2023-03-03T04:05:23.352Z,223.06
2023-03-03T04:06:23.347Z,223.06
2023-03-03T04:07:23.357Z,223.06
2023-03-03T04:08:23.374Z,223.06
2023-03-03T04:09:23.352Z,223.06
2023-03-03T04:10:23.399Z,223.06
2023-03-03T04:11:23.445Z,223.06
2023-03-03T04:12:23.363Z,223.06
2023-03-03T04:13:23.375Z,223.06
2023-03-03T04:14:23.355Z,223.06
2023-03-03T04:15:23.361Z,223.06
2023-03-03T04:16:23.375Z,223.06
2023-03-03T04:17:23.373Z,223.06
2023-03-03T04:18:23.364Z,223.06
2023-03-03T04:19:23.365Z,223.06
2023-03-03T04:20:23.387Z,223.06
2023-03-03T04:21:23.382Z,223.06
2023-03-03T04:22:23.385Z,223.06
2023-03-03T04:23:23.374Z,223.06
2023-03-03T04:24:23.376Z,223.06
2023-03-03T04:25:23.455Z,223.06
2023-03-03T04:26:23.381Z,223.06
2023-03-03T04:27:23.399Z,223.06
2023-03-03T04:28:23.403Z,223.06
2023-03-03T04:29:23.419Z,223.06
2023-03-03T04:30:23.372Z,223.06
2023-03-03T04:31:23.426Z,223.06
2023-03-03T04:32:23.430Z,223.06
2023-03-03T04:33:23.383Z,223.06
2023-03-03T04:34:23.380Z,223.06
2023-03-03T04:35:23.438Z,223.06
2023-03-03T04:36:23.380Z,223.06
2023-03-03T04:37:23.388Z,223.06
2023-03-03T04:38:23.403Z,223.06
2023-03-03T04:39:23.432Z,223.06
2023-03-03T04:40:23.388Z,223.06
2023-03-03T04:41:23.392Z,223.06
2023-03-03T04:42:23.397Z,223.06
2023-03-03T04:43:23.427Z,223.06
2023-03-03T04:44:23.394Z,223.06
2023-03-03T04:45:23.403Z,223.06
2023-03-03T04:46:23.470Z,223.06
2023-03-03T04:47:23.416Z,223.06
2023-03-03T04:48:23.401Z,223.06
2023-03-03T04:49:23.400Z,223.06
2023-03-03T04:50:23.401Z,223.06
2023-03-03T04:51:23.395Z,223.06
2023-03-03T04:52:23.429Z,223.06
2023-03-03T04:53:23.403Z,223.06
2023-03-03T04:54:23.412Z,223.06
2023-03-03T04:55:23.410Z,223.06
2023-03-03T04:56:23.417Z,223.06
2023-03-03T04:57:23.417Z,223.06
2023-03-03T04:58:23.409Z,223.06
2023-03-03T04:59:23.429Z,223.06
2023-03-03T05:00:23.410Z,223.06
2023-03-03T05:01:23.452Z,223.06
2023-03-03T05:02:23.406Z,223.06
2023-03-03T05:03:23.407Z,223.06
2023-03-03T05:04:23.449Z,223.06
2023-03-03T05:05:23.406Z,223.06
2023-03-03T05:06:23.416Z,223.06
2023-03-03T05:07:23.419Z,223.06
2023-03-03T05:08:23.427Z,223.06
2023-03-03T05:09:23.414Z,223.06
2023-03-03T05:10:23.418Z,223.06
2023-03-03T05:11:23.412Z,223.06
2023-03-03T05:12:23.420Z,223.06
2023-03-03T05:13:23.435Z,223.06
2023-03-03T05:14:23.454Z,223.06
2023-03-03T05:15:23.434Z,223.06
2023-03-03T05:16:23.473Z,223.06
2023-03-03T05:17:23.409Z,223.06
2023-03-03T05:18:23.417Z,223.06
2023-03-03T05:19:23.429Z,223.06
2023-03-03T05:20:23.426Z,223.06
2023-03-03T05:21:23.449Z,223.06
2023-03-03T05:22:23.423Z,223.06
2023-03-03T05:23:23.427Z,223.06
2023-03-03T05:24:23.416Z,223.06
2023-03-03T05:25:23.432Z,223.06
2023-03-03T05:26:23.470Z,223.06
2023-03-03T05:27:23.430Z,223.06
2023-03-03T05:28:23.437Z,223.06
2023-03-03T05:29:23.427Z,223.06
2023-03-03T05:30:23.461Z,223.06
2023-03-03T05:31:23.532Z,223.06
2023-03-03T05:32:23.484Z,223.06
2023-03-03T05:33:23.422Z,223.06
2023-03-03T05:34:23.427Z,223.06
2023-03-03T05:35:23.455Z,223.06
2023-03-03T05:36:23.445Z,223.06
2023-03-03T05:37:23.434Z,223.06
2023-03-03T05:38:23.445Z,223.06
2023-03-03T05:39:23.454Z,223.06
2023-03-03T05:40:23.431Z,223.06
2023-03-03T05:41:23.444Z,223.06
2023-03-03T05:42:23.490Z,223.06
2023-03-03T05:43:23.449Z,223.06
2023-03-03T05:44:23.437Z,223.06
2023-03-03T05:45:23.448Z,223.06
2023-03-03T05:46:23.501Z,223.06
2023-03-03T05:47:23.455Z,223.06
2023-03-03T05:48:23.475Z,223.06
2023-03-03T05:49:23.474Z,223.06
2023-03-03T05:50:23.438Z,223.06
2023-03-03T05:51:23.534Z,223.06
2023-03-03T05:52:23.434Z,223.06
2023-03-03T05:53:23.432Z,223.06
2023-03-03T05:54:23.436Z,223.06
2023-03-03T05:55:23.434Z,223.06
2023-03-03T05:56:23.460Z,223.06
2023-03-03T05:57:23.452Z,223.06
2023-03-03T05:58:23.447Z,223.06
2023-03-03T05:59:23.446Z,223.06
2023-03-03T06:00:23.480Z,223.06
2023-03-03T06:01:23.438Z,223.06
2023-03-03T06:02:23.440Z,223.06
2023-03-03T06:03:23.527Z,223.06
2023-03-03T06:04:23.459Z,223.06
2023-03-03T06:05:23.445Z,223.06
2023-03-03T06:06:23.451Z,223.06
2023-03-03T06:07:23.452Z,223.06
2023-03-03T06:08:23.454Z,223.06
2023-03-03T06:09:23.453Z,223.06
2023-03-03T06:10:23.463Z,223.06
2023-03-03T06:11:23.461Z,223.06
2023-03-03T06:12:23.447Z,223.06
2023-03-03T06:13:23.470Z,223.06
2023-03-03T06:14:24.806Z,223.06
2023-03-03T06:15:23.518Z,223.06
2023-03-03T06:16:23.484Z,223.06
2023-03-03T06:17:23.453Z,223.06
2023-03-03T06:18:23.448Z,223.06
2023-03-03T06:19:23.604Z,223.06
2023-03-03T06:20:23.468Z,223.06
2023-03-03T06:21:23.474Z,223.06
2023-03-03T06:22:23.450Z,223.06
2023-03-03T06:23:23.464Z,223.06
2023-03-03T06:24:23.445Z,223.06
2023-03-03T06:25:23.458Z,223.06
2023-03-03T06:26:23.469Z,223.06
2023-03-03T06:27:23.462Z,223.06
2023-03-03T06:28:23.473Z,223.06
2023-03-03T06:29:23.464Z,223.06
2023-03-03T06:30:23.464Z,223.06
2023-03-03T06:31:23.499Z,223.06
2023-03-03T06:32:23.485Z,223.06
2023-03-03T06:33:23.471Z,223.06
2023-03-03T06:34:23.468Z,223.06
2023-03-03T06:35:23.513Z,223.06
2023-03-03T06:36:23.473Z,223.06
2023-03-03T06:37:23.466Z,223.06
2023-03-03T06:38:23.469Z,223.06
2023-03-03T06:39:23.489Z,223.06
2023-03-03T06:40:23.461Z,223.06
2023-03-03T06:41:23.472Z,223.06
2023-03-03T06:42:23.467Z,223.06
2023-03-03T06:43:23.532Z,223.06
2023-03-03T06:44:23.476Z,223.06
2023-03-03T06:45:23.529Z,223.06
2023-03-03T06:46:23.476Z,223.06
2023-03-03T06:47:23.517Z,223.06
2023-03-03T06:48:23.469Z,223.06
2023-03-03T06:49:23.473Z,223.06
2023-03-03T06:50:23.482Z,223.06
2023-03-03T06:51:23.502Z,223.06
2023-03-03T06:52:23.487Z,223.06
2023-03-03T06:53:23.479Z,223.06
2023-03-03T06:54:25.806Z,223.06
2023-03-03T06:55:23.479Z,223.06
2023-03-03T06:56:23.509Z,223.06
2023-03-03T06:57:23.487Z,223.06
2023-03-03T06:58:23.475Z,223.06
2023-03-03T06:59:23.479Z,223.06
2023-03-03T07:00:23.480Z,223.06
2023-03-03T07:01:23.597Z,223.06
2023-03-03T07:02:23.488Z,223.06
2023-03-03T07:03:23.501Z,223.06
2023-03-03T07:04:23.560Z,223.06
2023-03-03T07:05:23.496Z,223.06
2023-03-03T07:06:23.500Z,223.06
2023-03-03T07:07:23.519Z,223.06
2023-03-03T07:08:23.497Z,223.06
2023-03-03T07:09:23.492Z,223.06
2023-03-03T07:10:23.498Z,223.06
2023-03-03T07:11:23.520Z,223.06
2023-03-03T07:12:23.518Z,223.06
2023-03-03T07:13:23.512Z,223.06
2023-03-03T07:14:23.537Z,223.06
2023-03-03T07:15:23.528Z,223.06
2023-03-03T07:16:23.522Z,223.06
2023-03-03T07:17:23.519Z,223.06
2023-03-03T07:18:23.596Z,223.06
2023-03-03T07:19:23.520Z,223.06
2023-03-03T07:20:23.527Z,223.06
2023-03-03T07:21:23.553Z,223.06
2023-03-03T07:22:23.536Z,223.06
2023-03-03T07:23:23.551Z,223.06
2023-03-03T07:24:23.525Z,223.06
2023-03-03T07:25:23.538Z,223.06
2023-03-03T07:26:23.531Z,223.06
2023-03-03T07:27:23.536Z,223.06
2023-03-03T07:28:23.558Z,223.06
2023-03-03T07:29:23.555Z,223.06
2023-03-03T07:30:23.546Z,223.06
2023-03-03T07:31:23.537Z,223.06
2023-03-03T07:32:23.574Z,223.06
2023-03-03T07:33:23.540Z,223.06
2023-03-03T07:34:23.587Z,223.06
2023-03-03T07:35:23.592Z,223.06
2023-03-03T07:36:23.537Z,223.06
2023-03-03T07:37:23.546Z,223.06
2023-03-03T07:38:23.558Z,223.06
2023-03-03T07:39:23.567Z,223.06
2023-03-03T07:40:23.538Z,223.06
2023-03-03T07:41:23.562Z,223.06
2023-03-03T07:42:23.553Z,223.06
2023-03-03T07:43:23.575Z,223.06
2023-03-03T07:44:23.561Z,223.06
2023-03-03T07:45:23.562Z,223.06
2023-03-03T07:46:23.683Z,223.06
2023-03-03T07:47:23.572Z,223.06
2023-03-03T07:48:23.573Z,223.06
2023-03-03T07:49:23.563Z,223.06
2023-03-03T07:50:23.623Z,223.06
2023-03-03T07:51:23.564Z,223.06
2023-03-03T07:52:23.582Z,223.06
2023-03-03T07:53:23.591Z,223.06
2023-03-03T07:54:23.581Z,223.06
2023-03-03T07:55:23.610Z,223.06
2023-03-03T07:56:23.619Z,223.06
2023-03-03T07:57:23.569Z,223.06
2023-03-03T07:58:23.599Z,223.06
2023-03-03T07:59:23.575Z,223.06
2023-03-03T08:00:23.624Z,223.06
2023-03-03T08:01:23.573Z,223.06
2023-03-03T08:02:23.605Z,223.06
2023-03-03T08:03:23.583Z,223.06
2023-03-03T08:04:23.677Z,223.06
2023-03-03T08:05:23.718Z,223.06
2023-03-03T08:06:23.594Z,223.06
2023-03-03T08:07:23.606Z,223.06
2023-03-03T08:08:23.590Z,223.06
2023-03-03T08:09:23.594Z,223.06
2023-03-03T08:10:23.676Z,223.06
2023-03-03T08:11:23.639Z,223.06
2023-03-03T08:12:23.591Z,223.06
2023-03-03T08:13:23.592Z,223.06
2023-03-03T08:14:23.575Z,223.06
2023-03-03T08:15:23.595Z,223.06
2023-03-03T08:16:23.656Z,223.06
2023-03-03T08:17:23.585Z,223.06
2023-03-03T08:18:23.589Z,223.06
2023-03-03T08:19:23.584Z,223.06
2023-03-03T08:20:23.583Z,223.06
2023-03-03T08:21:23.576Z,223.06
2023-03-03T08:22:23.588Z,223.06
2023-03-03T08:23:23.586Z,223.06
2023-03-03T08:24:23.592Z,223.06
2023-03-03T08:25:23.614Z,223.06
2023-03-03T08:26:23.599Z,223.06
2023-03-03T08:27:23.621Z,223.06
2023-03-03T08:28:23.598Z,223.06
2023-03-03T08:29:23.588Z,223.06
2023-03-03T08:30:23.575Z,223.06
2023-03-03T08:31:38.612Z,223.06
2023-03-03T08:32:23.691Z,207.53
2023-03-03T08:33:23.616Z,200.47
2023-03-03T08:34:23.584Z,201.88
2023-03-03T08:35:23.634Z,179.29
2023-03-03T08:36:23.599Z,206.12
2023-03-03T08:37:23.593Z,158.12
2023-03-03T08:38:23.597Z,158.12
2023-03-03T08:39:23.637Z,158.12
2023-03-03T08:40:23.599Z,158.12
2023-03-03T08:41:23.597Z,158.12
2023-03-03T08:42:23.591Z,158.12
2023-03-03T08:43:23.611Z,158.12
2023-03-03T08:44:23.658Z,158.12
2023-03-03T08:45:23.592Z,158.12
2023-03-03T08:46:23.636Z,158.12
2023-03-03T08:47:23.596Z,158.12
2023-03-03T08:48:23.601Z,158.12
2023-03-03T08:49:23.613Z,158.12
2023-03-03T08:50:23.584Z,158.12
2023-03-03T08:51:23.598Z,158.12
2023-03-03T08:52:23.608Z,158.12
2023-03-03T08:53:23.592Z,158.12
2023-03-03T08:54:23.588Z,158.12
2023-03-03T08:55:23.591Z,158.12
2023-03-03T08:56:23.605Z,158.12
2023-03-03T08:57:23.618Z,158.12
2023-03-03T08:58:30.558Z,158.12
2023-03-03T08:59:23.627Z,158.12
2023-03-03T09:00:23.604Z,158.12
2023-03-03T09:01:23.643Z,158.12
2023-03-03T09:02:23.618Z,158.12
2023-03-03T09:03:23.607Z,158.12
2023-03-03T09:04:23.653Z,158.12
2023-03-03T09:05:23.609Z,158.12
2023-03-03T09:06:23.612Z,158.12
2023-03-03T09:07:23.616Z,158.12
2023-03-03T09:08:23.607Z,158.12
2023-03-03T09:09:23.648Z,158.12
2023-03-03T09:10:23.611Z,158.12
2023-03-03T09:11:23.612Z,158.12
2023-03-03T09:12:23.614Z,158.12
2023-03-03T09:13:23.629Z,158.12
2023-03-03T09:14:23.618Z,158.12
2023-03-03T09:15:23.618Z,158.12
2023-03-03T09:16:23.658Z,158.12
2023-03-03T09:17:23.635Z,158.12
2023-03-03T09:18:23.621Z,158.12
2023-03-03T09:19:23.651Z,158.12
2023-03-03T09:20:23.633Z,158.12
2023-03-03T09:21:23.638Z,158.12
2023-03-03T09:22:23.635Z,158.12
2023-03-03T09:23:23.617Z,158.12
2023-03-03T09:24:23.617Z,158.12
2023-03-03T09:25:23.625Z,158.12
2023-03-03T09:26:23.623Z,158.12
2023-03-03T09:27:23.620Z,158.12
2023-03-03T09:28:23.645Z,158.12
2023-03-03T09:29:23.617Z,158.12
2023-03-03T09:30:23.818Z,158.12
2023-03-03T09:31:23.672Z,158.12
2023-03-03T09:32:23.713Z,158.12
2023-03-03T09:33:23.635Z,158.12
2023-03-03T09:34:23.657Z,158.12
2023-03-03T09:35:23.700Z,158.12
2023-03-03T09:36:23.644Z,158.12
2023-03-03T09:37:23.639Z,158.12
2023-03-03T09:38:23.638Z,158.12
2023-03-03T09:39:23.625Z,158.12
2023-03-03T09:40:23.719Z,158.12
2023-03-03T09:41:23.651Z,158.12
2023-03-03T09:42:23.640Z,158.12
2023-03-03T09:43:23.635Z,158.12
2023-03-03T09:44:23.631Z,158.12
2023-03-03T09:45:23.649Z,158.12
2023-03-03T09:46:23.745Z,158.12
2023-03-03T09:47:23.669Z,158.12
2023-03-03T09:48:23.646Z,158.12
2023-03-03T09:49:26.110Z,158.12
2023-03-03T09:50:23.678Z,158.12
2023-03-03T09:51:23.657Z,158.12
2023-03-03T09:52:23.682Z,158.12
2023-03-03T09:53:23.668Z,158.12
2023-03-03T09:54:23.654Z,158.12
2023-03-03T09:55:25.320Z,158.12
2023-03-03T09:56:23.655Z,158.12
2023-03-03T09:57:23.661Z,158.12
2023-03-03T09:58:23.659Z,158.12
2023-03-03T09:59:23.671Z,158.12
2023-03-03T10:00:23.689Z,158.12
2023-03-03T10:01:23.664Z,158.12
2023-03-03T10:02:23.672Z,158.12
2023-03-03T10:03:23.831Z,158.12
2023-03-03T10:04:23.725Z,158.12
2023-03-03T10:05:23.660Z,158.12
2023-03-03T10:06:23.659Z,158.12
2023-03-03T10:07:23.668Z,158.12
2023-03-03T10:08:23.665Z,158.12
2023-03-03T10:09:23.672Z,158.12
2023-03-03T10:10:23.659Z,158.12
2023-03-03T10:11:23.662Z,158.12
2023-03-03T10:12:23.666Z,158.12
2023-03-03T10:13:23.656Z,158.12
2023-03-03T10:14:23.695Z,158.12
2023-03-03T10:15:23.690Z,158.12
2023-03-03T10:16:23.766Z,158.12
2023-03-03T10:17:23.679Z,158.12
2023-03-03T10:18:23.680Z,158.12
2023-03-03T10:19:23.693Z,158.12
2023-03-03T10:20:23.686Z,158.12
2023-03-03T10:21:23.666Z,158.12
2023-03-03T10:22:23.670Z,158.12
2023-03-03T10:23:23.680Z,158.12
2023-03-03T10:24:23.678Z,158.12
2023-03-03T10:25:23.682Z,158.12
2023-03-03T10:26:34.804Z,158.12
2023-03-03T10:27:23.665Z,158.12
2023-03-03T10:28:23.683Z,158.12
2023-03-03T10:29:23.716Z,158.12
2023-03-03T10:30:37.204Z,158.12
2023-03-03T10:31:28.176Z,158.12
2023-03-03T10:32:23.935Z,158.12
2023-03-03T10:33:23.932Z,158.12
2023-03-03T10:34:23.679Z,158.12
2023-03-03T10:35:23.749Z,158.12
2023-03-03T10:36:23.837Z,158.12
2023-03-03T10:37:23.678Z,158.12
2023-03-03T10:38:23.674Z,158.12
2023-03-03T10:39:23.680Z,283.76
2023-03-03T10:40:23.696Z,297.88
2023-03-03T10:41:23.694Z,269.65
2023-03-03T10:42:23.692Z,285.18
2023-03-03T10:43:31.606Z,268.24
2023-03-03T10:44:23.675Z,249.88
2023-03-03T10:45:23.679Z,238.59
2023-03-03T10:46:23.692Z,238.59
2023-03-03T10:47:23.691Z,331.76
2023-03-03T10:48:23.696Z,319.06
2023-03-03T10:49:23.702Z,326.12
2023-03-03T10:50:23.692Z,328.94
2023-03-03T10:51:23.719Z,328.94
2023-03-03T10:52:23.698Z,289.41
2023-03-03T10:53:23.701Z,289.41
2023-03-03T10:54:23.692Z,289.41
2023-03-03T10:55:23.680Z,289.41
2023-03-03T10:56:23.695Z,289.41
2023-03-03T10:57:23.694Z,286.59
2023-03-03T10:58:23.803Z,14.12
2023-03-03T10:59:23.691Z,14.12
2023-03-03T11:00:23.693Z,14.12
2023-03-03T11:01:24.615Z,158.12
2023-03-03T11:02:23.702Z,326.12
2023-03-03T11:03:23.696Z,293.65
2023-03-03T11:04:23.753Z,272.47
2023-03-03T11:05:23.694Z,272.47
2023-03-03T11:06:23.728Z,272.47
2023-03-03T11:07:23.715Z,272.47
2023-03-03T11:08:23.689Z,272.47
2023-03-03T11:09:23.704Z,272.47
2023-03-03T11:10:23.688Z,272.47
2023-03-03T11:11:23.685Z,272.47
2023-03-03T11:12:23.706Z,272.47
2023-03-03T11:13:24.043Z,272.47
2023-03-03T11:14:23.693Z,272.47
2023-03-03T11:15:23.680Z,272.47
2023-03-03T11:16:23.733Z,297.88
2023-03-03T11:17:23.718Z,306.35
2023-03-03T11:18:25.679Z,309.18
2023-03-03T11:19:23.699Z,341.65
2023-03-03T11:20:23.684Z,360
2023-03-03T11:21:23.729Z,292.24
2023-03-03T11:22:23.710Z,248.47
2023-03-03T11:23:23.713Z,248.47
2023-03-03T11:24:25.172Z,286.59
2023-03-03T11:25:23.723Z,293.65
2023-03-03T11:26:23.683Z,293.65
2023-03-03T11:27:23.720Z,292.24
2023-03-03T11:28:23.716Z,295.06
2023-03-03T11:29:23.706Z,282.35
2023-03-03T11:30:23.701Z,285.18
2023-03-03T11:31:25.134Z,285.18
2023-03-03T11:32:23.781Z,247.06
2023-03-03T11:33:23.723Z,247.06
2023-03-03T11:34:23.721Z,247.06
2023-03-03T11:35:23.841Z,300.71
2023-03-03T11:36:23.733Z,259.76
2023-03-03T11:37:23.712Z,272.47
2023-03-03T11:38:23.715Z,293.65
2023-03-03T11:39:23.790Z,288
2023-03-03T11:40:23.722Z,317.65
2023-03-03T11:41:23.715Z,306.35
2023-03-03T11:42:23.923Z,293.65
2023-03-03T11:43:35.954Z,307.76
2023-03-03T11:44:23.728Z,285.18
2023-03-03T11:45:23.724Z,285.18
2023-03-03T11:46:23.800Z,273.88
2023-03-03T11:47:23.719Z,290.82
2023-03-03T11:48:23.736Z,293.65
2023-03-03T11:49:23.743Z,290.82
2023-03-03T11:50:23.736Z,268.24
2023-03-03T11:51:23.749Z,268.24
2023-03-03T11:52:23.729Z,266.82
2023-03-03T11:53:23.742Z,289.41
2023-03-03T11:54:23.746Z,316.24
2023-03-03T11:55:24.019Z,293.65
2023-03-03T11:56:23.732Z,306.35
2023-03-03T11:57:23.760Z,290.82
2023-03-03T11:58:23.724Z,249.88
2023-03-03T11:59:23.735Z,292.24
2023-03-03T12:00:23.731Z,286.59
2023-03-03T12:01:23.731Z,297.88
2023-03-03T12:02:23.821Z,297.88
2023-03-03T12:03:23.741Z,295.06
2023-03-03T12:04:23.738Z,282.35
2023-03-03T12:05:23.776Z,276.71
2023-03-03T12:06:23.749Z,276.71
2023-03-03T12:07:23.743Z,240
2023-03-03T12:08:23.731Z,285.18
2023-03-03T12:09:23.735Z,341.65
2023-03-03T12:10:23.738Z,307.76
2023-03-03T12:11:23.779Z,314.82
2023-03-03T12:12:23.742Z,310.59
2023-03-03T12:13:23.755Z,307.76
2023-03-03T12:14:23.735Z,297.88
2023-03-03T12:15:23.758Z,306.35
2023-03-03T12:16:23.827Z,296.47
2023-03-03T12:17:23.759Z,312
2023-03-03T12:18:23.753Z,292.24
2023-03-03T12:19:23.748Z,323.29
2023-03-03T12:20:23.747Z,331.76
2023-03-03T12:21:23.775Z,312
2023-03-03T12:22:23.762Z,347.29
2023-03-03T12:23:23.765Z,288
2023-03-03T12:24:23.773Z,317.65
2023-03-03T12:25:23.754Z,334.59
2023-03-03T12:26:23.753Z,11.29
2023-03-03T12:27:23.774Z,0
2023-03-03T12:28:23.773Z,340.24
2023-03-03T12:29:23.763Z,12.71